Time;durP1;ratioP1;P1;durP2;ratioP2;P2;SDS_P1;SDS_P2;PMS_P1;PMS_P2;Temp;Humidity;BMP_temperature;BMP_pressure;BME280_temperature;BME280_humidity;BME280_pressure;Samples;Min_cycle;Max_cycle;Signal;HPM_P1;HPM_P2
2021/12/06 00:01:22;;;;;;;;;;;;;;;3.20;100.00;89912.00;5091555;28;19927;-71
2021/12/06 00:03:51;;;;;;;;;;;;;;;3.29;100.00;89918.91;5091787;28;20359;-71
2021/12/06 00:06:18;;;;;;;;;;;;;;;3.20;100.00;89897.00;5091238;28;19998;-71
2021/12/06 00:08:44;;;;;;;;;;;;;;;3.29;100.00;89916.28;5091142;28;19916;-69
2021/12/06 00:11:10;;;;;;;;;;;;;;;3.38;100.00;89910.38;5091604;28;19923;-69
2021/12/06 00:13:38;;;;;;;;;;;;;;;3.08;100.00;89859.88;5091256;28;19951;-70
2021/12/06 00:16:07;;;;;;;;;;;;;;;3.27;100.00;89928.16;5091537;28;19916;-69
2021/12/06 00:18:33;;;;;;;;;;;;;;;3.27;100.00;89897.38;5091612;28;19924;-70
2021/12/06 00:20:59;;;;;;;;;;;;;;;3.33;100.00;89934.13;5090678;28;19974;-70
2021/12/06 00:23:24;;;;;;;;;;;;;;;3.32;100.00;89901.03;5091636;28;19920;-70
2021/12/06 00:25:50;;;;;;;;;;;;;;;3.46;100.00;89915.72;5091536;28;20374;-70
2021/12/06 00:28:15;;;;;;;;;;;;;;;3.50;100.00;89914.09;5091086;28;19916;-70
2021/12/06 00:30:41;;;;;;;;;;;;;;;3.56;100.00;89935.81;5091418;28;19920;-70
2021/12/06 00:33:06;;;;;;;;;;;;;;;3.50;100.00;89918.56;5091194;28;19931;-70
2021/12/06 00:35:31;;;;;;;;;;;;;;;3.62;100.00;89953.03;5090954;28;19951;-70
2021/12/06 00:38:00;;;;;;;;;;;;;;;3.64;100.00;89943.03;5091474;28;19924;-69
2021/12/06 00:40:40;;;;;;;;;;;;;;;3.49;100.00;89917.78;5091720;28;20417;-70
2021/12/06 00:43:05;;;;;;;;;;;;;;;3.34;100.00;89939.09;5095012;28;19916;-70
2021/12/06 00:45:31;;;;;;;;;;;;;;;3.42;100.00;89927.09;5091010;28;20401;-71
2021/12/06 00:47:57;;;;;;;;;;;;;;;3.41;100.00;89923.69;5071345;28;19928;-70
2021/12/06 00:50:23;;;;;;;;;;;;;;;3.39;100.00;89923.22;5092697;28;19927;-70
2021/12/06 00:52:49;;;;;;;;;;;;;;;3.53;100.00;89944.28;5095211;28;19981;-70
2021/12/06 00:55:15;;;;;;;;;;;;;;;3.51;100.00;89934.06;5095114;28;19916;-70
2021/12/06 00:57:40;;;;;;;;;;;;;;;3.58;100.00;89965.22;5094237;28;19942;-70
2021/12/06 01:00:10;;;;;;;;;;;;;;;3.37;100.00;89927.97;5094871;28;19926;-70
2021/12/06 01:02:36;;;;;;;;;;;;;;;3.25;100.00;89930.28;5094794;28;19924;-70
2021/12/06 01:05:02;;;;;;;;;;;;;;;3.44;100.00;89951.25;5094674;28;19920;-70
2021/12/06 01:07:28;;;;;;;;;;;;;;;3.47;100.00;89948.03;5094891;28;19916;-70
2021/12/06 01:09:53;;;;;;;;;;;;;;;3.27;100.00;89928.94;5094540;28;19923;-70
2021/12/06 01:12:18;;;;;;;;;;;;;;;3.24;100.00;89950.53;5094259;28;20741;-70
2021/12/06 01:14:44;;;;;;;;;;;;;;;3.09;100.00;89906.13;5094802;28;19916;-70
2021/12/06 01:17:09;;;;;;;;;;;;;;;3.38;100.00;89949.78;5094607;28;20317;-70
2021/12/06 01:19:36;;;;;;;;;;;;;;;3.28;100.00;89922.59;5094140;28;20394;-70
2021/12/06 01:22:54;;;;;;;;;;;;;;;3.15;100.00;89920.72;5094319;28;20399;-70
2021/12/06 01:25:02;;;;;;;;;;;;;;;3.25;100.00;89909.25;5083537;28;19916;-70
2021/12/06 01:40:04;;;;;;;;;;;;;;;3.26;100.00;89895.84;5094446;28;20431;-69
2021/12/06 01:42:29;;;;;;;;;;;;;;;3.35;100.00;89900.44;5075562;28;19916;-69
2021/12/06 01:44:56;;;;;;;;;;;;;;;3.19;100.00;89873.66;5094202;28;20305;-69
2021/12/06 01:47:24;;;;;;;;;;;;;;;3.23;100.00;89888.53;5093816;28;19916;-69
2021/12/06 01:49:52;;;;;;;;;;;;;;;3.25;100.00;89877.72;5093482;28;19981;-69
2021/12/06 01:52:19;;;;;;;;;;;;;;;3.33;100.00;89876.28;5074706;28;19927;-70
2021/12/06 01:54:45;;;;;;;;;;;;;;;3.36;100.00;89873.84;5093995;28;19916;-69
2021/12/06 01:57:11;;;;;;;;;;;;;;;3.17;100.00;89862.66;5092880;28;19916;-69
2021/12/06 01:59:37;;;;;;;;;;;;;;;3.37;100.00;89875.41;5093524;28;19931;-69
2021/12/06 02:02:02;;;;;;;;;;;;;;;3.27;100.00;89865.84;5093413;28;19924;-70
2021/12/06 02:04:29;;;;;;;;;;;;;;;3.21;100.00;89851.25;5093318;28;20007;-70
2021/12/06 02:06:55;;;;;;;;;;;;;;;3.32;100.00;89846.59;5093732;28;20385;-69
2021/12/06 02:09:21;;;;;;;;;;;;;;;3.35;100.00;89834.72;5093591;28;20007;-70
2021/12/06 02:11:47;;;;;;;;;;;;;;;3.43;100.00;89844.53;5092804;28;19931;-69
2021/12/06 02:14:27;;;;;;;;;;;;;;;3.57;100.00;89859.25;5093468;28;20381;-70
2021/12/06 02:17:09;;;;;;;;;;;;;;;3.55;100.00;89850.88;5093526;28;19978;-70
2021/12/06 02:19:41;;;;;;;;;;;;;;;3.68;100.00;89845.91;5092954;28;19916;-70
2021/12/06 02:22:08;;;;;;;;;;;;;;;3.56;100.00;89831.41;5093402;28;19976;-70
2021/12/06 02:24:36;;;;;;;;;;;;;;;3.37;100.00;89822.84;5093140;28;20312;-70
2021/12/06 02:27:01;;;;;;;;;;;;;;;3.46;100.00;89873.66;5092844;28;20378;-70
2021/12/06 02:29:27;;;;;;;;;;;;;;;3.39;100.00;89861.97;5093200;28;19927;-70
2021/12/06 02:31:53;;;;;;;;;;;;;;;3.40;100.00;89866.94;5093276;28;19916;-70
2021/12/06 02:34:18;;;;;;;;;;;;;;;3.25;100.00;89859.34;5092746;28;19927;-70
2021/12/06 02:36:46;;;;;;;;;;;;;;;3.30;100.00;89830.31;5092809;28;19920;-70
2021/12/06 02:39:18;;;;;;;;;;;;;;;3.37;100.00;89857.00;5093100;28;19915;-70
2021/12/06 02:41:46;;;;;;;;;;;;;;;3.39;100.00;89881.16;5092594;28;19945;-70
2021/12/06 02:44:11;;;;;;;;;;;;;;;3.33;100.00;89884.97;5093021;28;19920;-70
2021/12/06 02:46:37;;;;;;;;;;;;;;;3.44;100.00;89867.13;5092977;28;20447;-70
2021/12/06 02:49:03;;;;;;;;;;;;;;;3.43;100.00;89865.56;5092078;28;19924;-70
2021/12/06 02:51:28;;;;;;;;;;;;;;;3.37;100.00;89879.91;5074718;28;20378;-70
2021/12/06 02:53:54;;;;;;;;;;;;;;;3.58;100.00;89881.84;5074678;28;19923;-70
2021/12/06 02:56:39;;;;;;;;;;;;;;;3.57;100.00;89875.03;5092117;28;20282;-70
2021/12/06 02:59:06;;;;;;;;;;;;;;;3.70;100.00;89873.47;5092594;28;19922;-70
2021/12/06 03:01:32;;;;;;;;;;;;;;;3.50;100.00;89895.69;5092169;28;19978;-70
2021/12/06 03:03:58;;;;;;;;;;;;;;;3.52;100.00;89898.03;5091944;28;19955;-69
2021/12/06 03:06:24;;;;;;;;;;;;;;;3.29;100.00;89897.09;5074457;28;19927;-70
2021/12/06 03:08:55;;;;;;;;;;;;;;;3.25;100.00;89878.50;5092502;28;20015;-70
2021/12/06 03:11:24;;;;;;;;;;;;;;;2.97;100.00;89856.66;5091970;28;19916;-70
2021/12/06 03:13:50;;;;;;;;;;;;;;;3.12;100.00;89871.38;5092118;28;19959;-70
2021/12/06 03:16:16;;;;;;;;;;;;;;;2.98;100.00;89854.81;5092247;28;19963;-70
2021/12/06 03:18:42;;;;;;;;;;;;;;;3.09;100.00;89868.56;5091953;28;20353;-70
2021/12/06 03:21:08;;;;;;;;;;;;;;;2.91;100.00;89851.78;5092360;28;20436;-69
2021/12/06 03:23:33;;;;;;;;;;;;;;;2.85;100.00;89831.94;5092277;28;20057;-69
2021/12/06 03:25:58;;;;;;;;;;;;;;;2.94;100.00;89862.50;5091476;28;19916;-70
2021/12/06 03:28:24;;;;;;;;;;;;;;;3.06;100.00;89867.28;5092029;28;19920;-70
2021/12/06 03:30:49;;;;;;;;;;;;;;;3.18;100.00;89864.97;5092173;28;19916;-70
2021/12/06 03:33:14;;;;;;;;;;;;;;;3.26;100.00;89850.38;5091614;28;20003;-70
2021/12/06 03:35:41;;;;;;;;;;;;;;;3.32;100.00;89865.00;5091971;28;19920;-70
2021/12/06 03:38:07;;;;;;;;;;;;;;;3.35;100.00;89853.13;5091610;28;19924;-70
2021/12/06 03:40:32;;;;;;;;;;;;;;;3.15;100.00;89856.88;5091567;28;19922;-70
2021/12/06 03:42:57;;;;;;;;;;;;;;;3.12;100.00;89849.56;5091945;28;19942;-70
2021/12/06 03:45:23;;;;;;;;;;;;;;;3.06;100.00;89838.38;5091987;28;19916;-70
2021/12/06 03:47:48;;;;;;;;;;;;;;;3.17;100.00;89845.03;5091457;28;20029;-70
2021/12/06 03:50:14;;;;;;;;;;;;;;;3.21;100.00;89851.25;5091384;28;20385;-70
2021/12/06 03:52:39;;;;;;;;;;;;;;;3.24;100.00;89842.00;5091865;28;19916;-70
2021/12/06 03:55:06;;;;;;;;;;;;;;;3.16;100.00;89838.22;5091335;28;20381;-70
2021/12/06 03:57:31;;;;;;;;;;;;;;;3.32;100.00;89846.59;5091745;28;19920;-70
2021/12/06 03:59:57;;;;;;;;;;;;;;;3.16;100.00;89840.06;5091654;28;19924;-70
2021/12/06 04:02:24;;;;;;;;;;;;;;;3.12;100.00;89837.22;5090743;28;19973;-70
2021/12/06 04:04:49;;;;;;;;;;;;;;;3.18;100.00;89845.81;5091681;28;19916;-70
2021/12/06 04:07:15;;;;;;;;;;;;;;;2.97;100.00;89835.63;5091702;28;19922;-70
2021/12/06 04:09:40;;;;;;;;;;;;;;;3.02;100.00;89832.16;5091114;28;20400;-70
2021/12/06 04:12:07;;;;;;;;;;;;;;;3.05;100.00;89822.91;5091488;28;20009;-70
2021/12/06 04:14:33;;;;;;;;;;;;;;;3.18;100.00;89840.56;5066906;28;19920;-69
2021/12/06 04:16:58;;;;;;;;;;;;;;;3.24;100.00;89839.38;5093656;28;19916;-71
2021/12/06 04:19:24;;;;;;;;;;;;;;;3.25;100.00;89833.84;5095527;28;19974;-70
2021/12/06 04:21:49;;;;;;;;;;;;;;;3.26;100.00;89834.59;5094020;28;20494;-69
2021/12/06 04:24:15;;;;;;;;;;;;;;;3.15;100.00;89826.13;5074404;28;20392;-68
2021/12/06 04:26:41;;;;;;;;;;;;;;;3.28;100.00;89835.09;5072167;28;19960;-68
2021/12/06 04:29:07;;;;;;;;;;;;;;;3.30;100.00;89825.06;5074145;28;19960;-67
2021/12/06 04:31:39;;;;;;;;;;;;;;;3.40;100.00;89827.50;5074819;28;19916;-67
2021/12/06 04:34:04;;;;;;;;;;;;;;;3.45;100.00;89837.16;5074871;28;19959;-68
2021/12/06 04:36:30;;;;;;;;;;;;;;;3.46;100.00;89833.44;5074776;28;20009;-67
2021/12/06 04:38:55;;;;;;;;;;;;;;;3.35;100.00;89824.22;5074742;28;19923;-67
2021/12/06 04:41:21;;;;;;;;;;;;;;;3.32;100.00;89820.31;5074201;28;20358;-68
2021/12/06 04:43:47;;;;;;;;;;;;;;;3.45;100.00;89826.63;5074311;28;19947;-68
2021/12/06 04:46:13;;;;;;;;;;;;;;;3.59;100.00;89832.66;5074873;28;19927;-68
2021/12/06 04:48:38;;;;;;;;;;;;;;;3.53;100.00;89832.00;5074117;28;20405;-68
2021/12/06 04:51:04;;;;;;;;;;;;;;;3.41;100.00;89850.09;5074716;28;19916;-68
2021/12/06 04:53:36;;;;;;;;;;;;;;;3.38;100.00;89845.44;5074315;28;19955;-68
2021/12/06 04:56:07;;;;;;;;;;;;;;;3.43;100.00;89842.69;5074037;28;19917;-68
2021/12/06 04:58:35;;;;;;;;;;;;;;;3.51;100.00;89839.41;5073995;28;19924;-68
2021/12/06 05:01:06;;;;;;;;;;;;;;;3.46;100.00;89825.56;5074485;28;20386;-68
2021/12/06 05:03:33;;;;;;;;;;;;;;;3.48;100.00;89841.84;5073896;28;19924;-68
2021/12/06 05:06:00;;;;;;;;;;;;;;;3.31;100.00;89868.66;5074106;28;19917;-68
2021/12/06 05:08:28;;;;;;;;;;;;;;;3.32;100.00;89853.72;5074342;28;19916;-68
2021/12/06 05:10:55;;;;;;;;;;;;;;;3.38;100.00;89855.94;5073914;28;19959;-68
2021/12/06 05:13:20;;;;;;;;;;;;;;;3.45;100.00;89863.44;5073604;28;19916;-68
2021/12/06 05:15:46;;;;;;;;;;;;;;;3.40;100.00;89866.94;5074302;28;20405;-67
2021/12/06 05:18:11;;;;;;;;;;;;;;;3.39;100.00;89843.56;5055645;28;20317;-67
2021/12/06 05:20:37;;;;;;;;;;;;;;;3.47;100.00;89837.63;5074359;28;19920;-68
2021/12/06 05:23:03;;;;;;;;;;;;;;;3.77;100.00;89855.44;5074285;28;19924;-68
2021/12/06 05:25:29;;;;;;;;;;;;;;;3.67;100.00;89850.41;5073770;28;20404;-67
2021/12/06 05:27:56;;;;;;;;;;;;;;;3.65;100.00;89868.31;5074156;28;19916;-67
2021/12/06 05:30:23;;;;;;;;;;;;;;;3.59;100.00;89867.63;5073964;28;19927;-67
2021/12/06 05:32:49;;;;;;;;;;;;;;;3.64;100.00;89877.28;5073764;28;19916;-67
2021/12/06 05:35:14;;;;;;;;;;;;;;;3.57;100.00;89879.50;5074032;28;20314;-68
2021/12/06 05:37:42;;;;;;;;;;;;;;;3.63;100.00;89873.09;5073997;28;19970;-67
2021/12/06 05:40:09;;;;;;;;;;;;;;;3.69;100.00;89866.66;5073524;28;19924;-68
2021/12/06 05:42:34;;;;;;;;;;;;;;;3.61;100.00;89864.69;5073728;28;19916;-67
2021/12/06 05:45:00;;;;;;;;;;;;;;;3.57;100.00;89867.13;5073953;28;19986;-68
2021/12/06 05:47:25;;;;;;;;;;;;;;;3.56;100.00;89870.84;5073402;28;19923;-68
2021/12/06 05:49:51;;;;;;;;;;;;;;;3.64;100.00;89884.41;5073754;28;20654;-67
2021/12/06 05:52:16;;;;;;;;;;;;;;;3.42;100.00;89871.91;5073708;28;19931;-67
2021/12/06 05:54:42;;;;;;;;;;;;;;;3.28;100.00;89856.13;5073077;28;19920;-67
2021/12/06 05:57:09;;;;;;;;;;;;;;;3.21;100.00;89867.03;5073689;28;19917;-67
2021/12/06 05:59:35;;;;;;;;;;;;;;;3.21;100.00;89887.28;5073813;28;19925;-67
2021/12/06 06:02:01;;;;;;;;;;;;;;;3.26;100.00;89882.69;5072980;28;20015;-67
2021/12/06 06:04:26;;;;;;;;;;;;;;;3.19;100.00;89874.41;5073616;28;19920;-67
2021/12/06 06:06:52;;;;;;;;;;;;;;;3.16;100.00;89871.59;5073352;28;19928;-68
2021/12/06 06:09:17;;;;;;;;;;;;;;;3.10;100.00;89863.00;5072907;28;19916;-67
2021/12/06 06:11:43;;;;;;;;;;;;;;;3.15;100.00;89857.66;5073460;28;20001;-67
2021/12/06 06:14:08;;;;;;;;;;;;;;;3.07;100.00;89865.44;5073429;28;19939;-67
2021/12/06 06:16:46;;;;;;;;;;;;;;;3.25;100.00;89877.72;5072761;28;19920;-68
2021/12/06 06:19:11;;;;;;;;;;;;;;;3.11;100.00;89874.28;5072987;28;19920;-68
2021/12/06 06:21:37;;;;;;;;;;;;;;;3.11;100.00;89872.44;5073171;28;20011;-68
2021/12/06 06:24:02;;;;;;;;;;;;;;;3.37;100.00;89877.25;5073013;28;19916;-68
2021/12/06 06:26:28;;;;;;;;;;;;;;;3.22;100.00;89868.59;5073201;28;20412;-68
2021/12/06 06:28:53;;;;;;;;;;;;;;;3.28;100.00;89882.41;5073056;28;19920;-69
2021/12/06 06:31:19;;;;;;;;;;;;;;;3.22;100.00;89865.16;5072203;28;19921;-68
2021/12/06 06:33:44;;;;;;;;;;;;;;;3.45;100.00;89889.72;5073059;28;19916;-69
2021/12/06 06:36:11;;;;;;;;;;;;;;;3.56;100.00;89885.84;5072937;28;19916;-68
2021/12/06 06:38:36;;;;;;;;;;;;;;;3.65;100.00;89893.84;5071910;28;19916;-68
2021/12/06 06:41:02;;;;;;;;;;;;;;;3.71;100.00;89885.56;5072907;28;19920;-68
2021/12/06 06:43:28;;;;;;;;;;;;;;;3.71;100.00;89884.78;5072601;28;20420;-68
2021/12/06 06:45:53;;;;;;;;;;;;;;;3.85;100.00;89891.59;5072215;28;19928;-68
2021/12/06 06:48:19;;;;;;;;;;;;;;;3.87;100.00;89888.66;5072576;28;19916;-69
2021/12/06 06:50:44;;;;;;;;;;;;;;;3.83;100.00;89892.97;5072663;28;20290;-67
2021/12/06 06:53:09;;;;;;;;;;;;;;;3.84;100.00;89899.78;5072105;28;19924;-67
2021/12/06 06:55:35;;;;;;;;;;;;;;;3.99;100.00;89881.06;5072552;28;19924;-68
2021/12/06 06:58:00;;;;;;;;;;;;;;;4.00;100.00;89871.31;5072112;28;19916;-68
2021/12/06 07:00:28;;;;;;;;;;;;;;;3.92;100.00;89891.97;5072038;28;19916;-68
2021/12/06 07:02:53;;;;;;;;;;;;;;;3.84;100.00;89873.47;5072248;28;19920;-67
2021/12/06 07:05:19;;;;;;;;;;;;;;;3.83;100.00;89883.22;5072303;28;19923;-67
2021/12/06 07:07:44;;;;;;;;;;;;;;;3.77;100.00;89902.78;5071953;28;19923;-68
2021/12/06 07:10:10;;;;;;;;;;;;;;;3.69;100.00;89881.66;5071955;28;19917;-68
2021/12/06 07:12:43;;;;;;;;;;;;;;;3.82;100.00;89894.81;5072216;28;20451;-68
2021/12/06 07:15:11;;;;;;;;;;;;;;;3.95;100.00;89897.75;5071711;28;19923;-67
2021/12/06 07:17:37;;;;;;;;;;;;;;;4.04;100.00;89890.69;5072032;28;19940;-67
2021/12/06 07:20:03;;;;;;;;;;;;;;;4.11;100.00;89889.25;5071991;28;19924;-68
2021/12/06 07:22:28;;;;;;;;;;;;;;;4.22;100.00;89876.63;5071400;28;19981;-68
2021/12/06 07:24:53;;;;;;;;;;;;;;;4.22;100.00;89877.41;5072100;28;20010;-68
2021/12/06 07:27:19;;;;;;;;;;;;;;;4.14;100.00;89866.81;5071915;28;20006;-67
2021/12/06 07:29:44;;;;;;;;;;;;;;;4.25;100.00;89870.78;5071430;28;19916;-67
2021/12/06 07:32:09;;;;;;;;;;;;;;;4.17;100.00;89871.47;5071931;28;19965;-67
2021/12/06 07:34:36;;;;;;;;;;;;;;;4.24;100.00;89866.59;5071614;28;20413;-67
2021/12/06 07:37:02;;;;;;;;;;;;;;;4.50;100.00;89869.44;5071318;28;20015;-67
2021/12/06 07:39:28;;;;;;;;;;;;;;;4.61;100.00;89862.88;5071965;28;19997;-67
2021/12/06 07:41:53;;;;;;;;;;;;;;;4.73;100.00;89862.34;5071872;28;20390;-68
2021/12/06 07:44:19;;;;;;;;;;;;;;;4.53;100.00;89868.84;5071286;28;19917;-68
2021/12/06 07:46:45;;;;;;;;;;;;;;;4.62;100.00;89882.09;5071467;28;19922;-68
2021/12/06 07:49:10;;;;;;;;;;;;;;;4.30;100.00;89869.91;5071622;28;19961;-68
2021/12/06 07:51:36;;;;;;;;;;;;;;;4.45;100.00;89880.09;5070353;28;20005;-68
2021/12/06 07:54:02;;;;;;;;;;;;;;;4.50;100.00;89891.28;5071673;28;20023;-67
2021/12/06 07:56:27;;;;;;;;;;;;;;;4.52;100.00;89888.34;5071599;28;19931;-68
2021/12/06 07:58:53;;;;;;;;;;;;;;;4.51;100.00;89911.28;5070733;28;19916;-68
2021/12/06 08:01:18;;;;;;;;;;;;;;;4.47;100.00;89899.78;5085597;28;19923;-69
2021/12/06 08:03:44;;;;;;;;;;;;;;;4.76;100.00;89903.91;5091678;28;20014;-69
2021/12/06 08:06:10;;;;;;;;;;;;;;;5.07;100.00;89896.84;5073409;28;19916;-68
2021/12/06 08:08:38;;;;;;;;;;;;;;;5.14;100.00;89900.91;5091419;28;19973;-69
2021/12/06 08:11:13;;;;;;;;;;;;;;;5.29;100.00;89893.41;5091318;28;20389;-69
2021/12/06 08:13:40;;;;;;;;;;;;;;;5.38;100.00;89872.38;5091076;28;19920;-68
2021/12/06 08:16:07;;;;;;;;;;;;;;;5.29;100.00;89874.16;5091818;28;19916;-68
2021/12/06 08:18:33;;;;;;;;;;;;;;;5.64;100.00;89860.06;5091537;28;19955;-68
2021/12/06 08:21:00;;;;;;;;;;;;;;;5.66;100.00;89857.88;5091342;28;19967;-68
2021/12/06 08:23:26;;;;;;;;;;;;;;;5.66;100.00;89871.09;5091136;28;19916;-69
2021/12/06 08:25:51;;;;;;;;;;;;;;;5.78;100.00;89875.00;5091406;28;19926;-68
2021/12/06 08:28:17;;;;;;;;;;;;;;;6.10;100.00;89863.34;5091477;28;20375;-69
2021/12/06 08:30:43;;;;;;;;;;;;;;;6.39;100.00;89863.56;5091067;28;19966;-66
2021/12/06 08:33:09;;;;;;;;;;;;;;;6.12;100.00;89874.38;5091430;28;19920;-69
2021/12/06 08:35:45;;;;;;;;;;;;;;;6.19;100.00;89862.28;5091105;28;19969;-68
2021/12/06 08:38:12;;;;;;;;;;;;;;;6.19;100.00;89843.81;5090901;28;19916;-69
2021/12/06 08:40:39;;;;;;;;;;;;;;;6.43;100.00;89850.50;5091394;28;19923;-69
2021/12/06 08:43:04;;;;;;;;;;;;;;;6.34;100.00;89858.44;5091402;28;19916;-67
2021/12/06 08:45:31;;;;;;;;;;;;;;;6.67;100.00;89861.41;5090906;28;19923;-67
2021/12/06 08:47:56;;;;;;;;;;;;;;;6.76;100.00;89862.19;5090908;28;19960;-67
2021/12/06 08:50:24;;;;;;;;;;;;;;;6.48;100.00;89861.72;5091341;28;20016;-68
2021/12/06 08:52:50;;;;;;;;;;;;;;;6.44;100.00;89859.97;5090767;28;19965;-67
2021/12/06 08:55:16;;;;;;;;;;;;;;;5.88;100.00;89853.63;5091279;28;20005;-67
2021/12/06 08:57:42;;;;;;;;;;;;;;;5.79;100.00;89842.25;5091089;28;20070;-68
2021/12/06 09:00:10;;;;;;;;;;;;;;;6.12;100.00;89859.31;5090413;28;20014;-68
2021/12/06 09:02:35;;;;;;;;;;;;;;;6.10;100.00;89840.38;5093168;28;20314;-67
2021/12/06 09:05:01;;;;;;;;;;;;;;;6.09;100.00;89830.88;5094926;28;19916;-68
2021/12/06 09:07:26;;;;;;;;;;;;;;;5.89;100.00;89839.34;5094476;28;19950;-67
2021/12/06 09:09:55;;;;;;;;;;;;;;;6.18;100.00;89834.34;5094783;28;19920;-68
2021/12/06 09:12:26;;;;;;;;;;;;;;;5.80;100.00;89830.63;5076772;28;20304;-68
2021/12/06 09:14:53;;;;;;;;;;;;;;;6.07;100.00;89821.72;5076118;28;19981;-67
2021/12/06 09:17:19;;;;;;;;;;;;;;;6.11;100.00;89818.16;5094724;28;19916;-68
2021/12/06 09:19:44;;;;;;;;;;;;;;;6.02;100.00;89827.16;5094586;28;19973;-68
2021/12/06 09:22:10;;;;;;;;;;;;;;;6.21;100.00;89828.44;5094240;28;19916;-68
2021/12/06 09:24:35;;;;;;;;;;;;;;;6.06;100.00;89831.50;5094626;28;20428;-68
2021/12/06 09:27:01;;;;;;;;;;;;;;;6.10;100.00;89845.63;5076058;28;19919;-68
2021/12/06 09:29:27;;;;;;;;;;;;;;;6.57;100.00;89848.50;5094037;28;19982;-68
2021/12/06 09:31:54;;;;;;;;;;;;;;;6.26;100.00;89853.91;5094444;28;19990;-68
2021/12/06 09:34:20;;;;;;;;;;;;;;;6.10;100.00;89848.28;5094312;28;19916;-68
2021/12/06 09:36:46;;;;;;;;;;;;;;;6.24;100.00;89840.22;5093828;28;20305;-68
2021/12/06 09:39:13;;;;;;;;;;;;;;;6.44;100.00;89828.28;5093986;28;19916;-68
2021/12/06 09:41:38;;;;;;;;;;;;;;;6.48;100.00;89816.03;5094379;28;19916;-68
2021/12/06 09:44:05;;;;;;;;;;;;;;;6.52;100.00;89814.31;5093850;28;20294;-68
2021/12/06 09:46:35;;;;;;;;;;;;;;;6.98;100.00;89826.09;5094215;28;20507;-68
2021/12/06 09:49:03;;;;;;;;;;;;;;;6.57;100.00;89822.84;5093930;28;20346;-68
2021/12/06 09:51:29;;;;;;;;;;;;;;;5.95;100.00;89822.31;5093465;28;19916;-68
2021/12/06 09:53:55;;;;;;;;;;;;;;;5.79;100.00;89814.03;5093986;28;19977;-68
2021/12/06 09:56:23;;;;;;;;;;;;;;;5.96;100.00;89813.31;5093856;28;20011;-68
2021/12/06 09:58:49;;;;;;;;;;;;;;;5.96;100.00;89813.31;5093321;28;19916;-68
2021/12/06 10:01:17;;;;;;;;;;;;;;;5.80;100.00;89820.06;5093617;28;20379;-68
2021/12/06 10:03:46;;;;;;;;;;;;;;;5.68;100.00;89808.25;5093523;28;20387;-68
2021/12/06 10:06:11;;;;;;;;;;;;;;;5.63;100.00;89826.06;5093438;28;19916;-68
2021/12/06 10:08:39;;;;;;;;;;;;;;;5.50;100.00;89819.81;5093716;28;19924;-68
2021/12/06 10:11:06;;;;;;;;;;;;;;;5.45;100.00;89819.97;5093713;28;19916;-68
2021/12/06 10:13:32;;;;;;;;;;;;;;;5.63;100.00;89826.84;5092276;28;19920;-68
2021/12/06 10:15:58;;;;;;;;;;;;;;;5.61;100.00;89813.19;5093276;28;19963;-68
2021/12/06 10:18:23;;;;;;;;;;;;;;;5.62;100.00;89817.38;5093541;28;19954;-68
2021/12/06 10:20:49;;;;;;;;;;;;;;;5.67;100.00;89805.91;5093093;28;19916;-68
2021/12/06 10:23:16;;;;;;;;;;;;;;;5.61;100.00;89792.09;5093466;28;19923;-68
2021/12/06 10:25:44;;;;;;;;;;;;;;;5.63;100.00;89786.50;5075196;28;20011;-68
2021/12/06 10:28:09;;;;;;;;;;;;;;;6.04;100.00;89778.25;5092658;28;20037;-69
2021/12/06 10:30:38;;;;;;;;;;;;;;;6.33;100.00;89772.38;5093369;28;20016;-68
2021/12/06 10:33:08;;;;;;;;;;;;;;;6.44;100.00;89776.22;5093263;28;19923;-68
2021/12/06 10:35:35;;;;;;;;;;;;;;;6.71;100.00;89779.63;5092584;28;20378;-68
2021/12/06 10:38:00;;;;;;;;;;;;;;;6.83;100.00;89779.78;5092983;28;19917;-68
2021/12/06 10:40:34;;;;;;;;;;;;;;;6.59;100.00;89767.81;5092904;28;19923;-68
2021/12/06 10:43:04;;;;;;;;;;;;;;;6.52;100.00;89756.19;5092486;28;20411;-68
2021/12/06 10:45:31;;;;;;;;;;;;;;;6.40;100.00;89763.97;5093043;28;19916;-68
2021/12/06 10:48:14;;;;;;;;;;;;;;;6.34;100.00;89762.56;5092845;28;19927;-68
2021/12/06 10:50:45;;;;;;;;;;;;;;;6.79;100.00;89749.78;5092541;28;19923;-68
2021/12/06 10:53:11;;;;;;;;;;;;;;;6.81;100.00;89755.53;5092615;28;19917;-68
2021/12/06 10:55:39;;;;;;;;;;;;;;;7.04;100.00;89772.72;5093023;28;19920;-68
2021/12/06 10:58:06;;;;;;;;;;;;;;;6.75;100.00;89760.19;5092217;28;19916;-68
2021/12/06 11:00:37;;;;;;;;;;;;;;;6.39;100.00;89767.69;5092798;28;19916;-68
2021/12/06 11:03:04;;;;;;;;;;;;;;;6.11;100.00;89773.28;5092535;28;19920;-68
2021/12/06 11:05:30;;;;;;;;;;;;;;;6.32;100.00;89754.97;5091905;28;20352;-68
2021/12/06 11:07:57;;;;;;;;;;;;;;;6.38;100.00;89772.19;5092414;28;19916;-68
2021/12/06 11:10:23;;;;;;;;;;;;;;;6.61;100.00;89755.09;5092603;28;19920;-68
2021/12/06 11:12:48;;;;;;;;;;;;;;;6.74;100.00;89747.28;5092112;28;20002;-68
2021/12/06 11:15:14;;;;;;;;;;;;;;;7.18;100.00;89744.22;5092431;28;20010;-68
2021/12/06 11:17:39;;;;;;;;;;;;;;;7.27;100.00;89757.44;5091931;28;19916;-69
2021/12/06 11:20:18;;;;;;;;;;;;;;;7.14;100.00;89759.19;5091976;28;20321;-68
2021/12/06 11:22:44;;;;;;;;;;;;;;;7.04;100.00;89745.53;5092390;28;19939;-68
2021/12/06 11:25:09;;;;;;;;;;;;;;;6.58;100.00;89744.38;5092154;28;20294;-68
2021/12/06 11:27:38;;;;;;;;;;;;;;;6.45;100.00;89737.38;5091750;28;20420;-67
2021/12/06 11:30:06;;;;;;;;;;;;;;;6.57;100.00;89724.31;5091972;28;20011;-68
2021/12/06 11:32:40;;;;;;;;;;;;;;;6.65;100.00;89718.25;5092081;28;20472;-68
2021/12/06 11:35:11;;;;;;;;;;;;;;;6.90;100.00;89714.75;5091445;28;19924;-68
2021/12/06 11:37:36;;;;;;;;;;;;;;;7.11;100.00;89735.25;5084985;28;20420;-68
2021/12/06 11:40:09;;;;;;;;;;;;;;;6.93;100.00;89760.16;5086365;28;19920;-68
2021/12/06 11:42:51;;;;;;;;;;;;;;;6.22;100.00;89761.31;5086938;28;20010;-68
2021/12/06 11:45:31;;;;;;;;;;;;;;;6.08;100.00;89738.81;5091965;28;19920;-68
2021/12/06 11:48:08;;;;;;;;;;;;;;;6.07;100.00;89732.75;5091769;28;19963;-67
2021/12/06 11:50:37;;;;;;;;;;;;;;;6.16;100.00;89748.59;5091620;28;19916;-67
2021/12/06 11:53:06;;;;;;;;;;;;;;;6.12;100.00;89755.56;5091848;28;19912;-68
2021/12/06 11:55:32;;;;;;;;;;;;;;;6.23;100.00;89744.41;5091553;28;19963;-67
2021/12/06 11:57:58;;;;;;;;;;;;;;;5.99;100.00;89746.69;5091273;28;20397;-68
2021/12/06 12:00:24;;;;;;;;;;;;;;;6.22;100.00;89748.13;5091761;28;20339;-68
2021/12/06 12:02:51;;;;;;;;;;;;;;;5.89;100.00;89749.63;5091482;28;20400;-67
2021/12/06 12:05:19;;;;;;;;;;;;;;;5.63;100.00;89757.47;5091493;28;19923;-67
2021/12/06 12:07:51;;;;;;;;;;;;;;;5.55;100.00;89761.66;5091340;28;19965;-67
2021/12/06 12:10:37;;;;;;;;;;;;;;;5.63;100.00;89752.97;5091634;28;19920;-67
2021/12/06 12:13:04;;;;;;;;;;;;;;;5.55;100.00;89756.38;5091086;28;20320;-67
2021/12/06 12:15:29;;;;;;;;;;;;;;;5.48;100.00;89740.22;5091670;28;19916;-67
2021/12/06 12:17:55;;;;;;;;;;;;;;;5.49;100.00;89756.81;5091060;28;19926;-67
2021/12/06 12:20:24;;;;;;;;;;;;;;;5.41;100.00;89745.19;5091220;28;20014;-67
2021/12/06 12:22:55;;;;;;;;;;;;;;;5.53;100.00;89723.50;5091519;28;19974;-67
2021/12/06 12:25:31;;;;;;;;;;;;;;;5.71;100.00;89717.94;5091039;28;19924;-67
2021/12/06 12:30:24;;;;;;;;;;;;;;;5.62;100.00;89714.50;5091871;28;19943;-67
2021/12/06 12:32:49;;;;;;;;;;;;;;;5.47;100.00;89727.34;5090736;28;19916;-67
2021/12/06 12:35:15;;;;;;;;;;;;;;;5.57;100.00;89730.47;5091441;28;19924;-66
2021/12/06 12:37:41;;;;;;;;;;;;;;;5.70;100.00;89729.56;5093627;28;20351;-67
2021/12/06 12:40:09;;;;;;;;;;;;;;;5.83;100.00;89724.44;5095332;28;19971;-69
2021/12/06 12:42:35;;;;;;;;;;;;;;;5.89;100.00;89717.97;5095513;28;19916;-68
2021/12/06 12:45:03;;;;;;;;;;;;;;;5.72;100.00;89721.34;5095031;28;19931;-68
2021/12/06 12:47:30;;;;;;;;;;;;;;;5.76;100.00;89730.19;5094744;28;19920;-68
2021/12/06 12:49:57;;;;;;;;;;;;;;;5.67;100.00;89748.63;5076247;28;19923;-68
2021/12/06 12:52:34;;;;;;;;;;;;;;;5.46;100.00;89737.13;5095155;28;19919;-68
2021/12/06 12:54:59;;;;;;;;;;;;;;;5.58;100.00;89732.03;5094612;28;19922;-69
2021/12/06 12:57:35;;;;;;;;;;;;;;;5.72;100.00;89731.91;5094660;28;20014;-68
2021/12/06 13:00:02;;;;;;;;;;;;;;;5.59;100.00;89741.50;5094998;28;20450;-68
2021/12/06 13:02:35;;;;;;;;;;;;;;;5.55;100.00;89732.66;5092955;28;19928;-68